Terminal Aerodrome Forecast
Issued by NWS

Home | Current Version | Previous Version | Text Only | Print | Product List | Glossary On
Versions: 1 2 3 4 5 6 7 8 9 10 11 12 13 14
000
FTUS43 KPAH 020520
TAFCGI
TAF
KCGI 020520Z 0206/0306 VRB02KT P6SM SCT200
      TEMPO 0208/0212 3SM BR SKC
     FM021400 16004KT P6SM SCT040
     FM030100 14002KT P6SM SKC=

USA.gov is the U.S. government's official web portal to all federal, state and local government web resources and services.